createdAt,value
2023-03-18T00:02:08.596Z,2.43
2023-03-18T00:05:15.116Z,2.38
2023-03-18T00:08:22.032Z,2.31
2023-03-18T00:11:27.651Z,2.28
2023-03-18T00:14:34.657Z,2.23
2023-03-18T00:17:43.528Z,2.18
2023-03-18T00:20:49.732Z,2.13
2023-03-18T00:23:56.823Z,2.12
2023-03-18T00:27:03.177Z,2.11
2023-03-18T00:30:12.590Z,2.07
2023-03-18T00:33:22.626Z,2.03
2023-03-18T00:36:28.532Z,1.96
2023-03-18T00:39:35.894Z,1.90
2023-03-18T00:42:47.779Z,1.80
2023-03-18T00:45:54.270Z,1.73
2023-03-18T00:49:05.658Z,1.70
2023-03-18T00:52:12.209Z,1.65
2023-03-18T00:55:17.687Z,1.64
2023-03-18T00:58:24.765Z,1.65
2023-03-18T01:01:31.857Z,1.44
2023-03-18T01:04:41.682Z,1.63
2023-03-18T01:07:48.627Z,1.64
2023-03-18T01:10:54.854Z,1.63
2023-03-18T01:14:01.517Z,1.63
2023-03-18T01:17:10.973Z,1.63
2023-03-18T01:20:23.920Z,1.62
2023-03-18T01:23:33.397Z,1.58
2023-03-18T01:26:39.460Z,1.57
2023-03-18T01:29:46.661Z,1.57
2023-03-18T01:32:57.983Z,1.54
2023-03-18T01:36:08.767Z,1.53
2023-03-18T01:39:14.601Z,1.55
2023-03-18T01:42:22.300Z,1.52
2023-03-18T01:45:32.299Z,1.49
2023-03-18T01:48:43.156Z,1.45
2023-03-18T01:51:58.098Z,1.41
2023-03-18T01:55:11.619Z,1.37
2023-03-18T01:58:25.601Z,1.34
2023-03-18T02:01:40.519Z,1.28
2023-03-18T02:04:51.222Z,1.22
2023-03-18T02:08:00.510Z,1.20
2023-03-18T02:11:07.763Z,1.14
2023-03-18T02:14:19.465Z,1.12
2023-03-18T02:17:30.705Z,0.75
2023-03-18T02:21:11.640Z,1.05
2023-03-18T02:24:38.773Z,1.00
2023-03-18T02:28:03.507Z,0.96
2023-03-18T02:31:19.643Z,0.92
2023-03-18T02:34:28.634Z,0.89
2023-03-18T02:37:36.464Z,0.84
2023-03-18T02:40:45.673Z,0.81
2023-03-18T02:44:00.049Z,0.76
2023-03-18T02:47:18.406Z,0.73
2023-03-18T02:50:24.966Z,0.68
2023-03-18T02:53:30.667Z,0.64
2023-03-18T02:56:37.395Z,0.63
2023-03-18T02:59:45.624Z,0.61
2023-03-18T03:02:52.327Z,0.58
2023-03-18T03:05:59.330Z,0.38
2023-03-18T03:09:07.091Z,0.57
2023-03-18T03:12:13.937Z,0.51
2023-03-18T03:15:29.885Z,0.47
2023-03-18T03:18:38.438Z,0.42
2023-03-18T03:21:44.660Z,0.41
2023-03-18T03:24:50.169Z,0.37
2023-03-18T03:27:57.489Z,0.37
2023-03-18T03:31:07.044Z,0.33
2023-03-18T03:34:14.891Z,0.25
2023-03-18T03:37:21.738Z,0.21
2023-03-18T03:40:28.877Z,0.20
2023-03-18T03:43:34.471Z,0.17
2023-03-18T03:46:43.487Z,0.15
2023-03-18T03:49:48.909Z,0.14
2023-03-18T03:52:56.197Z,0.03
2023-03-18T03:56:02.105Z,0.09
2023-03-18T03:59:08.777Z,0.05
2023-03-18T04:02:39.915Z,0.03
2023-03-18T04:05:46.819Z,0.01
2023-03-18T04:08:52.752Z,-0.01
2023-03-18T04:11:59.440Z,-0.05
2023-03-18T04:15:05.070Z,-0.06
2023-03-18T04:18:15.055Z,-0.08
2023-03-18T04:21:21.362Z,-0.12
2023-03-18T04:24:32.627Z,-0.15
2023-03-18T04:27:38.571Z,-0.18
2023-03-18T04:30:47.659Z,-0.21
2023-03-18T04:34:00.163Z,-0.23
2023-03-18T04:37:07.921Z,-0.26
2023-03-18T04:40:20.198Z,-0.28
2023-03-18T04:43:26.566Z,-0.32
2023-03-18T04:46:32.854Z,-0.33
2023-03-18T04:49:42.277Z,-0.36
2023-03-18T04:52:48.518Z,-0.42
2023-03-18T04:56:00.449Z,-0.45
2023-03-18T04:59:13.796Z,-0.47
2023-03-18T05:02:20.093Z,-0.46
2023-03-18T05:05:28.948Z,-0.49
2023-03-18T05:08:35.354Z,-0.43
2023-03-18T05:11:40.845Z,-0.40
2023-03-18T05:14:58.227Z,-0.34
2023-03-18T05:18:04.850Z,-0.29
2023-03-18T05:21:15.009Z,-0.27
2023-03-18T05:24:21.060Z,-0.23
2023-03-18T05:27:27.989Z,-0.17
2023-03-18T05:30:40.562Z,-0.13
2023-03-18T05:33:51.361Z,-0.07
2023-03-18T05:37:00.631Z,-0.02
2023-03-18T05:40:10.099Z,0.02
2023-03-18T05:43:16.177Z,0.05
2023-03-18T05:46:29.199Z,0.08
2023-03-18T05:49:41.752Z,0.10
2023-03-18T05:53:01.368Z,0.14
2023-03-18T05:56:12.498Z,0.15
2023-03-18T05:59:19.159Z,0.15
2023-03-18T06:02:28.094Z,0.18
2023-03-18T06:05:35.342Z,0.26
2023-03-18T06:08:43.981Z,0.33
2023-03-18T06:11:51.710Z,0.47
2023-03-18T06:14:57.646Z,0.61
2023-03-18T06:18:05.571Z,0.73
2023-03-18T06:21:13.546Z,0.84
2023-03-18T06:24:22.604Z,0.96
2023-03-18T06:27:28.469Z,1.09
2023-03-18T06:30:38.105Z,1.19
2023-03-18T06:33:44.428Z,1.30
2023-03-18T06:36:53.351Z,1.40
2023-03-18T06:40:01.857Z,1.46
2023-03-18T06:43:09.559Z,1.53
2023-03-18T06:46:18.047Z,1.57
2023-03-18T06:49:25.093Z,1.66
2023-03-18T06:52:38.558Z,1.78
2023-03-18T06:55:54.236Z,1.73
2023-03-18T06:59:03.454Z,1.90
2023-03-18T07:02:11.606Z,2.02
2023-03-18T07:05:17.893Z,2.08
2023-03-18T07:08:24.649Z,2.11
2023-03-18T07:11:33.180Z,2.19
2023-03-18T07:14:45.970Z,2.32
2023-03-18T07:17:53.669Z,2.42
2023-03-18T07:20:59.943Z,2.54
2023-03-18T07:24:05.805Z,2.68
2023-03-18T07:27:16.870Z,2.80
2023-03-18T07:30:23.123Z,2.87
2023-03-18T07:33:29.421Z,3.02
2023-03-18T07:36:35.066Z,3.19
2023-03-18T07:39:42.956Z,3.31
2023-03-18T07:42:51.788Z,3.43
2023-03-18T07:45:58.892Z,3.55
2023-03-18T07:49:04.595Z,3.61
2023-03-18T07:52:11.414Z,3.79
2023-03-18T07:55:17.305Z,3.96
2023-03-18T07:58:26.817Z,4.09
2023-03-18T08:01:33.280Z,4.22
2023-03-18T08:04:39.557Z,4.34
2023-03-18T08:07:45.649Z,4.48
2023-03-18T08:10:52.505Z,4.61
2023-03-18T08:14:00.752Z,4.69
2023-03-18T08:17:07.825Z,4.80
2023-03-18T08:20:15.447Z,4.85
2023-03-18T08:23:21.883Z,4.99
2023-03-18T08:26:27.528Z,5.15
2023-03-18T08:29:37.008Z,5.32
2023-03-18T08:32:42.920Z,5.48
2023-03-18T08:35:51.010Z,5.57
2023-03-18T08:38:56.747Z,5.69
2023-03-18T08:42:03.498Z,5.81
2023-03-18T08:45:14.500Z,5.95
2023-03-18T08:48:20.864Z,6.06
2023-03-18T08:51:27.064Z,6.15
2023-03-18T08:54:33.619Z,6.24
2023-03-18T08:57:39.102Z,6.32
2023-03-18T09:00:48.216Z,6.43
2023-03-18T09:03:56.405Z,6.55
2023-03-18T09:07:04.624Z,6.64
2023-03-18T09:10:13.152Z,6.74
2023-03-18T09:13:19.626Z,6.85
2023-03-18T09:16:27.832Z,6.91
2023-03-18T09:19:34.274Z,6.96
2023-03-18T09:22:39.884Z,7.02
2023-03-18T09:25:46.728Z,7.13
2023-03-18T09:28:52.106Z,7.18
2023-03-18T09:32:01.446Z,7.19
2023-03-18T09:35:07.367Z,7.19
2023-03-18T09:38:19.858Z,7.25
2023-03-18T09:41:45.424Z,7.36
2023-03-18T09:44:59.888Z,7.44
2023-03-18T09:48:47.415Z,7.50
2023-03-18T09:52:16.918Z,7.57
2023-03-18T09:55:35.794Z,7.59
2023-03-18T09:58:59.532Z,7.59
2023-03-18T10:02:19.351Z,7.65
2023-03-18T10:05:36.060Z,7.68
2023-03-18T10:09:09.096Z,7.65
2023-03-18T10:12:27.319Z,7.66
2023-03-18T10:15:40.014Z,7.50
2023-03-18T10:18:48.015Z,7.63
2023-03-18T10:22:16.639Z,7.63
2023-03-18T10:25:37.358Z,7.71
2023-03-18T10:29:24.328Z,7.80
2023-03-18T10:32:50.433Z,7.87
2023-03-18T10:36:08.693Z,7.88
2023-03-18T10:39:23.779Z,8.03
2023-03-18T10:42:35.629Z,8.08
2023-03-18T10:45:42.626Z,8.13
2023-03-18T10:48:54.980Z,8.29
2023-03-18T10:52:12.989Z,8.44
2023-03-18T10:55:32.243Z,8.60
2023-03-18T10:58:39.020Z,8.80
2023-03-18T11:01:51.114Z,8.93
2023-03-18T11:05:04.793Z,9.13
2023-03-18T11:08:34.619Z,9.34
2023-03-18T11:11:48.724Z,9.49
2023-03-18T11:14:55.177Z,9.61
2023-03-18T11:18:06.029Z,9.69
2023-03-18T11:21:13.290Z,9.75
2023-03-18T11:24:36.526Z,9.81
2023-03-18T11:27:47.570Z,9.85
2023-03-18T11:31:00.649Z,9.90
2023-03-18T11:34:12.281Z,9.94
2023-03-18T11:37:19.067Z,10.03
2023-03-18T11:40:32.479Z,10.08
2023-03-18T11:43:42.704Z,10.17
2023-03-18T11:46:57.573Z,10.23
2023-03-18T11:50:08.597Z,10.28
2023-03-18T11:53:23.878Z,10.35
2023-03-18T11:56:42.655Z,10.42
2023-03-18T12:00:19.282Z,10.52
2023-03-18T12:04:07.213Z,10.52
2023-03-18T12:07:38.192Z,10.54
2023-03-18T12:10:54.895Z,10.59
2023-03-18T12:14:13.535Z,10.62
2023-03-18T12:17:45.656Z,10.64
2023-03-18T12:20:57.257Z,10.65
2023-03-18T12:24:28.832Z,10.69
2023-03-18T12:27:53.705Z,10.77
2023-03-18T12:31:32.078Z,10.84
2023-03-18T12:35:06.765Z,10.80
2023-03-18T12:39:07.118Z,10.83
2023-03-18T12:42:21.196Z,10.82
2023-03-18T12:45:39.684Z,10.78
2023-03-18T12:48:58.936Z,10.80
2023-03-18T12:52:17.734Z,10.77
2023-03-18T12:55:31.890Z,10.81
2023-03-18T12:58:49.241Z,10.77
2023-03-18T13:02:23.080Z,10.69
2023-03-18T13:05:46.803Z,10.76
2023-03-18T13:09:22.062Z,10.92
2023-03-18T13:12:36.478Z,11.03
2023-03-18T13:15:49.788Z,11.13
2023-03-18T13:19:02.061Z,11.24
2023-03-18T13:22:36.497Z,11.33
2023-03-18T13:26:04.362Z,11.46
2023-03-18T13:29:32.255Z,11.56
2023-03-18T13:33:15.905Z,11.60
2023-03-18T13:37:15.791Z,11.68
2023-03-18T13:40:54.494Z,11.76
2023-03-18T13:44:06.849Z,11.79
2023-03-18T13:47:22.669Z,11.83
2023-03-18T13:50:38.238Z,11.89
2023-03-18T13:53:47.623Z,11.91
2023-03-18T13:56:58.459Z,11.87
2023-03-18T14:00:36.940Z,12.02
2023-03-18T14:04:02.481Z,12.06
2023-03-18T14:07:19.425Z,12.07
2023-03-18T14:10:25.264Z,12.15
2023-03-18T14:13:37.634Z,12.16
2023-03-18T14:16:56.486Z,12.16
2023-03-18T14:20:20.590Z,12.19
2023-03-18T14:23:39.502Z,12.24
2023-03-18T14:26:50.589Z,12.32
2023-03-18T14:29:58.747Z,12.36
2023-03-18T14:33:08.268Z,12.31
2023-03-18T14:36:14.153Z,12.38
2023-03-18T14:39:29.942Z,12.41
2023-03-18T14:42:53.135Z,12.44
2023-03-18T14:46:11.965Z,12.35
2023-03-18T14:49:39.249Z,12.30
2023-03-18T14:52:55.965Z,12.29
2023-03-18T14:56:03.969Z,12.33
2023-03-18T14:59:10.886Z,12.35
2023-03-18T15:02:29.793Z,12.37
2023-03-18T15:05:41.175Z,12.30
2023-03-18T15:08:55.006Z,12.26
2023-03-18T15:12:01.911Z,12.24
2023-03-18T15:15:09.917Z,12.19
2023-03-18T15:18:28.732Z,12.18
2023-03-18T15:21:38.961Z,12.17
2023-03-18T15:24:45.281Z,12.11
2023-03-18T15:27:52.874Z,12.09
2023-03-18T15:31:01.771Z,12.08
2023-03-18T15:34:22.514Z,12.10
2023-03-18T15:37:42.969Z,12.11
2023-03-18T15:40:57.242Z,11.95
2023-03-18T15:44:03.468Z,12.16
2023-03-18T15:47:18.628Z,12.15
2023-03-18T15:50:35.256Z,12.13
2023-03-18T15:53:48.092Z,12.08
2023-03-18T15:56:55.377Z,12.01
2023-03-18T16:00:01.354Z,11.95
2023-03-18T16:03:24.951Z,11.90
2023-03-18T16:06:34.653Z,11.87
2023-03-18T16:09:40.960Z,11.84
2023-03-18T16:12:46.833Z,11.83
2023-03-18T16:15:54.205Z,11.83
2023-03-18T16:19:00.111Z,11.73
2023-03-18T16:22:09.311Z,11.66
2023-03-18T16:25:15.513Z,11.54
2023-03-18T16:28:26.076Z,11.44
2023-03-18T16:31:31.787Z,11.34
2023-03-18T16:34:38.194Z,11.31
2023-03-18T16:37:48.709Z,11.23
2023-03-18T16:41:00.163Z,11.12
2023-03-18T16:44:17.863Z,10.77
2023-03-18T16:47:29.668Z,10.95
2023-03-18T16:50:40.668Z,10.83
2023-03-18T16:53:50.235Z,10.74
2023-03-18T16:57:09.804Z,10.69
2023-03-18T17:00:40.189Z,10.62
2023-03-18T17:03:48.292Z,10.59
2023-03-18T17:06:55.192Z,10.54
2023-03-18T17:10:04.166Z,10.47
2023-03-18T17:13:19.838Z,10.38
2023-03-18T17:16:28.021Z,10.27
2023-03-18T17:19:37.349Z,10.19
2023-03-18T17:22:43.460Z,10.08
2023-03-18T17:25:59.449Z,9.96
2023-03-18T17:29:05.422Z,9.81
2023-03-18T17:32:13.510Z,9.68
2023-03-18T17:35:22.699Z,9.55
2023-03-18T17:38:29.176Z,9.42
2023-03-18T17:41:37.602Z,9.32
2023-03-18T17:44:44.053Z,9.25
2023-03-18T17:47:50.429Z,9.14
2023-03-18T17:51:01.487Z,8.98
2023-03-18T17:54:08.442Z,8.96
2023-03-18T17:57:19.265Z,8.88
2023-03-18T18:00:28.491Z,8.80
2023-03-18T18:03:37.986Z,8.74
2023-03-18T18:06:43.738Z,8.70
2023-03-18T18:09:50.338Z,8.68
2023-03-18T18:12:58.472Z,8.65
2023-03-18T18:16:05.076Z,8.59
2023-03-18T18:19:14.141Z,8.51
2023-03-18T18:22:26.688Z,8.43
2023-03-18T18:25:32.870Z,8.39
2023-03-18T18:28:45.422Z,8.30
2023-03-18T18:31:51.609Z,8.20
2023-03-18T18:34:58.164Z,8.13
2023-03-18T18:38:03.820Z,8.06
2023-03-18T18:41:10.872Z,7.97
2023-03-18T18:44:19.811Z,7.89
2023-03-18T18:47:26.054Z,7.83
2023-03-18T18:50:35.629Z,7.48
2023-03-18T18:53:43.586Z,7.69
2023-03-18T18:56:49.835Z,7.62
2023-03-18T18:59:59.930Z,7.54
2023-03-18T19:03:06.017Z,7.45
2023-03-18T19:06:29.325Z,7.43
2023-03-18T19:09:35.175Z,7.42
2023-03-18T19:12:42.147Z,7.39
2023-03-18T19:15:51.698Z,7.35
2023-03-18T19:18:59.094Z,7.29
2023-03-18T19:22:05.549Z,7.25
2023-03-18T19:25:16.077Z,7.19
2023-03-18T19:28:47.656Z,7.13
2023-03-18T19:31:57.522Z,7.08
2023-03-18T19:35:03.336Z,7.04
2023-03-18T19:38:10.097Z,7.00
2023-03-18T19:41:15.816Z,6.98
2023-03-18T19:44:25.778Z,6.94
2023-03-18T19:47:34.886Z,6.91
2023-03-18T19:50:41.307Z,6.90
2023-03-18T19:53:48.552Z,6.88
2023-03-18T19:56:55.994Z,6.83
2023-03-18T20:00:07.407Z,6.81
2023-03-18T20:03:26.347Z,6.80
2023-03-18T20:06:32.958Z,6.80
2023-03-18T20:09:39.686Z,6.83
2023-03-18T20:12:49.140Z,6.84
2023-03-18T20:15:55.781Z,6.85
2023-03-18T20:19:04.599Z,6.84
2023-03-18T20:22:24.070Z,6.84
2023-03-18T20:25:37.510Z,6.85
2023-03-18T20:28:45.880Z,6.84
2023-03-18T20:31:51.919Z,6.81
2023-03-18T20:35:03.517Z,6.81
2023-03-18T20:38:21.233Z,6.81
2023-03-18T20:41:28.249Z,6.78
2023-03-18T20:44:33.859Z,6.77
2023-03-18T20:47:40.141Z,6.77
2023-03-18T20:50:49.380Z,6.72
2023-03-18T20:53:55.622Z,6.74
2023-03-18T20:57:01.401Z,6.72
2023-03-18T21:00:09.623Z,6.70
2023-03-18T21:03:26.455Z,6.67
2023-03-18T21:06:36.066Z,6.65
2023-03-18T21:09:41.664Z,6.64
2023-03-18T21:12:49.400Z,6.62
2023-03-18T21:15:54.941Z,6.60
2023-03-18T21:19:03.131Z,6.62
2023-03-18T21:22:16.370Z,6.61
2023-03-18T21:25:26.287Z,6.62
2023-03-18T21:28:33.485Z,6.57
2023-03-18T21:31:39.825Z,6.49
2023-03-18T21:34:45.341Z,6.45
2023-03-18T21:37:55.810Z,6.41
2023-03-18T21:41:04.762Z,6.37
2023-03-18T21:44:14.227Z,6.34
2023-03-18T21:47:22.243Z,6.31
2023-03-18T21:50:29.928Z,6.28
2023-03-18T21:53:38.129Z,6.26
2023-03-18T21:56:44.407Z,6.24
2023-03-18T21:59:49.816Z,6.26
2023-03-18T22:02:56.162Z,6.24
2023-03-18T22:06:01.873Z,6.20
2023-03-18T22:09:11.194Z,6.17
2023-03-18T22:12:20.932Z,6.17
2023-03-18T22:15:39.738Z,6.14
2023-03-18T22:18:47.609Z,6.14
2023-03-18T22:21:53.972Z,6.15
2023-03-18T22:25:02.111Z,6.14
2023-03-18T22:28:09.133Z,6.13
2023-03-18T22:31:23.778Z,6.08
2023-03-18T22:34:30.713Z,6.04
2023-03-18T22:37:36.572Z,6.00
2023-03-18T22:40:48.430Z,5.95
2023-03-18T22:43:54.872Z,5.91
2023-03-18T22:47:02.760Z,5.86
2023-03-18T22:50:09.226Z,5.82
2023-03-18T22:53:25.032Z,5.80
2023-03-18T22:56:33.221Z,5.75
2023-03-18T22:59:39.428Z,5.71
2023-03-18T23:02:45.161Z,5.70
2023-03-18T23:05:54.909Z,5.69
2023-03-18T23:09:00.356Z,5.66
2023-03-18T23:12:11.906Z,5.65
2023-03-18T23:15:20.979Z,5.64
2023-03-18T23:18:28.400Z,5.61
2023-03-18T23:21:35.141Z,5.60
2023-03-18T23:24:41.681Z,5.59
2023-03-18T23:27:50.124Z,5.53
2023-03-18T23:30:57.250Z,5.55
2023-03-18T23:34:02.654Z,5.56
2023-03-18T23:37:09.829Z,5.53
2023-03-18T23:40:17.792Z,5.51
2023-03-18T23:43:26.857Z,5.45
2023-03-18T23:46:33.021Z,5.44
2023-03-18T23:49:40.620Z,5.43
2023-03-18T23:52:46.611Z,5.42
2023-03-18T23:55:52.949Z,5.39
2023-03-18T23:59:01.210Z,5.38
